CYVL

Colville Lake / Tommy Kochon Airport

Colville Lake, Northwest Territories, Canada
METAR CYVL 182300Z AUTO 27015KT 9SM FEW047 12/00 A3000 RMK SLP176
Observed Flight Rules
Aug-18 @ 23:00 UTC (44 minutes ago) Visual Flight Rules
Wind Visibility Clouds
270° at 15 knots 9 miles
  • Few at 4,700' AGL
Temperatures Readings
Current 12°C / 54°F
Dewpoint 0°C / 32°F
Humidity 44%
Altimeter 30" Hg
Pressure 1017.6 hPa
Elevation 259
METAR CYVL 182300Z AUTO 27015KT 9SM FEW047 12/00 A3000 RMK SLP176
Observed Flight Rules
Aug-18 @ 23:00 UTC
(44 minutes ago)
VFR
Wind Visibility
270° at 15 knots 9 miles
Clouds
  • Few at 4,700' AGL
Temperature Dewpoint
12°C / 54°F 0°C / 32°F
Humidity Altimeter Pressure
44% 30" Hg 1017.6 hPa